Time;durP1;ratioP1;P1;durP2;ratioP2;P2;SDS_P1;SDS_P2;PMS_P1;PMS_P2;Temp;Humidity;BMP_temperature;BMP_pressure;BME280_temperature;BME280_humidity;BME280_pressure;Samples;Min_cycle;Max_cycle;Signal;HPM_P1;HPM_P2
2022/02/05 00:02:20;;;;;;;178.02;89.53;;;;;;;;;;5070329;28;20180;-72
2022/02/05 00:04:48;;;;;;;146.70;68.93;;;;;;;;;;5069890;28;20215;-71
2022/02/05 00:07:15;;;;;;;95.85;49.42;;;;;;;;;;5070579;28;20623;-72
2022/02/05 00:10:05;;;;;;;82.68;40.03;;;;;;;;;;5069656;28;20211;-72
2022/02/05 00:13:08;;;;;;;72.13;38.70;;;;;;;;;;5069880;28;20274;-72
2022/02/05 00:16:07;;;;;;;73.28;37.03;;;;;;;;;;5069973;28;20199;-71
2022/02/05 00:43:12;;;;;;;82.50;42.53;;;;;;;;;;5069365;28;20204;-69
2022/02/05 00:45:43;;;;;;;80.82;44.50;;;;;;;;;;5070001;28;20191;-70
2022/02/05 00:48:12;;;;;;;88.18;45.53;;;;;;;;;;5069126;28;20183;-71
2022/02/05 00:50:43;;;;;;;98.13;49.33;;;;;;;;;;5069218;28;20172;-70
2022/02/05 00:53:27;;;;;;;99.55;51.28;;;;;;;;;;5068872;28;20180;-70
2022/02/05 00:56:03;;;;;;;87.22;47.55;;;;;;;;;;5069391;28;20188;-70
2022/02/05 00:58:30;;;;;;;87.60;44.67;;;;;;;;;;5069099;28;20225;-70
2022/02/05 01:00:56;;;;;;;88.53;44.65;;;;;;;;;;5069714;28;20616;-70
2022/02/05 01:03:23;;;;;;;85.68;44.38;;;;;;;;;;5084159;28;20712;-70
2022/02/05 01:05:50;;;;;;;85.72;44.00;;;;;;;;;;5069905;28;20699;-69
2022/02/05 01:08:17;;;;;;;75.47;40.80;;;;;;;;;;5069076;28;20630;-70
2022/02/05 01:10:44;;;;;;;75.63;41.13;;;;;;;;;;5069067;28;20203;-70
2022/02/05 01:13:12;;;;;;;79.35;40.53;;;;;;;;;;5068696;28;20176;-70
2022/02/05 01:15:50;;;;;;;73.45;37.65;;;;;;;;;;5069371;28;20262;-69
2022/02/05 01:18:19;;;;;;;75.97;37.78;;;;;;;;;;5068394;28;20586;-70
2022/02/05 01:23:38;;;;;;;69.60;35.90;;;;;;;;;;5068691;28;20547;-71
2022/02/05 01:26:43;;;;;;;74.15;38.60;;;;;;;;;;5069013;28;20183;-70
2022/02/05 01:29:06;;;;;;;73.30;37.72;;;;;;;;;;5066062;28;20231;-71
2022/02/05 01:31:56;;;;;;;76.20;37.75;;;;;;;;;;5069120;28;20198;-72
2022/02/05 01:34:50;;;;;;;84.63;44.22;;;;;;;;;;5068310;28;20426;-72
2022/02/05 02:12:13;;;;;;;73.78;36.95;;;;;;;;;;5072433;28;20204;-70
2022/02/05 02:14:55;;;;;;;72.20;35.65;;;;;;;;;;5071731;28;20192;-70
2022/02/05 02:32:18;;;;;;;68.65;32.78;;;;;;;;;;5071743;28;20249;-70
2022/02/05 02:34:49;;;;;;;62.80;32.13;;;;;;;;;;5071890;28;20268;-71
2022/02/05 02:37:33;;;;;;;68.50;34.88;;;;;;;;;;5072052;28;20228;-71
2022/02/05 02:42:37;;;;;;;58.75;31.48;;;;;;;;;;5071908;28;20196;-71
2022/02/05 02:45:04;;;;;;;60.95;33.63;;;;;;;;;;5071350;28;20662;-72
2022/02/05 02:47:31;;;;;;;60.83;35.35;;;;;;;;;;5071724;28;20188;-70
2022/02/05 02:50:10;;;;;;;65.90;34.90;;;;;;;;;;5071207;28;20192;-71
2022/02/05 02:58:06;;;;;;;70.35;37.47;;;;;;;;;;5071513;28;20289;-71
2022/02/05 03:00:33;;;;;;;95.03;46.42;;;;;;;;;;5071730;28;20210;-70
2022/02/05 03:03:00;;;;;;;90.50;47.08;;;;;;;;;;5071955;28;20199;-70
2022/02/05 03:05:27;;;;;;;109.78;52.70;;;;;;;;;;5070728;28;20211;-69
2022/02/05 03:07:53;;;;;;;124.80;64.80;;;;;;;;;;5071101;28;20578;-69
2022/02/05 03:10:20;;;;;;;126.15;62.38;;;;;;;;;;5070885;28;20211;-72
2022/02/05 03:12:47;;;;;;;113.25;54.88;;;;;;;;;;5070934;28;20200;-70
2022/02/05 03:15:18;;;;;;;113.22;54.63;;;;;;;;;;5070677;28;20564;-72
2022/02/05 03:18:02;;;;;;;105.30;52.67;;;;;;;;;;5071256;28;20267;-71
2022/02/05 03:20:29;;;;;;;115.30;54.75;;;;;;;;;;5070451;28;20219;-72
2022/02/05 03:22:56;;;;;;;122.00;58.72;;;;;;;;;;5071253;28;20204;-70
2022/02/05 03:25:33;;;;;;;145.85;66.82;;;;;;;;;;5070720;28;20697;-73
2022/02/05 03:28:00;;;;;;;149.07;71.43;;;;;;;;;;5070870;28;20195;-70
2022/02/05 03:30:27;;;;;;;146.60;72.38;;;;;;;;;;5070303;28;20204;-70
2022/02/05 03:32:55;;;;;;;169.07;81.50;;;;;;;;;;5086607;28;20556;-70
2022/02/05 03:35:22;;;;;;;181.27;86.22;;;;;;;;;;5070482;28;20184;-70
2022/02/05 03:37:49;;;;;;;178.35;85.45;;;;;;;;;;5070686;28;20280;-70
2022/02/05 03:40:15;;;;;;;181.13;87.80;;;;;;;;;;5070012;28;20271;-70
2022/02/05 03:42:42;;;;;;;170.88;81.00;;;;;;;;;;5070624;28;20199;-71
2022/02/05 03:45:09;;;;;;;174.75;81.35;;;;;;;;;;5070103;28;20333;-69
2022/02/05 03:47:37;;;;;;;167.77;78.80;;;;;;;;;;5070364;28;20647;-71
2022/02/05 03:50:04;;;;;;;158.82;76.15;;;;;;;;;;5069954;28;20666;-71
2022/02/05 03:52:31;;;;;;;155.35;75.65;;;;;;;;;;5070318;28;20685;-70
2022/02/05 03:54:58;;;;;;;154.10;76.25;;;;;;;;;;5070109;28;20325;-70
2022/02/05 03:57:25;;;;;;;147.68;74.40;;;;;;;;;;5070688;28;20621;-71
2022/02/05 03:59:51;;;;;;;155.40;77.30;;;;;;;;;;5069679;28;20575;-70
2022/02/05 04:02:18;;;;;;;153.95;75.00;;;;;;;;;;5070016;28;20231;-69
2022/02/05 04:04:45;;;;;;;162.02;77.20;;;;;;;;;;5069984;28;20687;-70
2022/02/05 04:07:12;;;;;;;169.80;80.15;;;;;;;;;;5070528;28;20218;-71
2022/02/05 04:09:41;;;;;;;159.60;78.97;;;;;;;;;;5074992;28;20218;-70
2022/02/05 04:17:31;;;;;;;156.27;79.30;;;;;;;;;;5069497;28;20242;-71
2022/02/05 04:19:58;;;;;;;161.90;82.25;;;;;;;;;;5068313;28;20599;-71
2022/02/05 04:22:25;;;;;;;164.98;81.28;;;;;;;;;;5070150;28;20200;-70
2022/02/05 04:24:51;;;;;;;146.88;73.50;;;;;;;;;;5069296;28;20196;-71
2022/02/05 04:27:19;;;;;;;84.68;45.58;;;;;;;;;;5069823;28;20212;-71
2022/02/05 04:29:46;;;;;;;85.68;40.95;;;;;;;;;;5069242;28;20208;-72
2022/02/05 04:32:14;;;;;;;96.43;47.20;;;;;;;;;;5069773;28;20675;-72
2022/02/05 04:34:41;;;;;;;93.57;45.63;;;;;;;;;;5068269;28;20556;-72
2022/02/05 04:37:08;;;;;;;95.97;47.50;;;;;;;;;;5070145;28;20573;-71
2022/02/05 04:39:39;;;;;;;115.72;56.58;;;;;;;;;;5069613;28;20321;-70
2022/02/05 04:42:14;;;;;;;130.68;61.28;;;;;;;;;;5069875;28;20196;-71
2022/02/05 04:50:18;;;;;;;104.28;50.92;;;;;;;;;;5069589;28;20176;-71
2022/02/05 04:57:52;;;;;;;105.10;52.42;;;;;;;;;;5069421;28;20706;-69
2022/02/05 05:00:33;;;;;;;103.00;51.67;;;;;;;;;;5069027;28;20206;-70
2022/02/05 05:03:28;;;;;;;102.20;49.22;;;;;;;;;;5069604;28;20195;-72
2022/02/05 05:08:49;;;;;;;98.63;48.65;;;;;;;;;;5068949;28;20236;-70
2022/02/05 05:21:37;;;;;;;90.85;46.70;;;;;;;;;;5069271;28;20182;-70
2022/02/05 05:24:04;;;;;;;97.90;49.25;;;;;;;;;;5068685;28;20210;-71
2022/02/05 05:26:31;;;;;;;93.88;48.65;;;;;;;;;;5069745;28;20203;-71
2022/02/05 05:28:57;;;;;;;95.32;45.38;;;;;;;;;;5068606;28;20573;-72
2022/02/05 05:31:24;;;;;;;74.43;38.65;;;;;;;;;;5069140;28;20571;-72
2022/02/05 05:33:51;;;;;;;80.88;39.85;;;;;;;;;;5068719;28;20180;-71
2022/02/05 05:36:18;;;;;;;81.68;42.00;;;;;;;;;;5068998;28;20200;-72
2022/02/05 05:38:45;;;;;;;88.05;43.65;;;;;;;;;;5071569;28;20759;-71
2022/02/05 05:41:12;;;;;;;89.40;43.70;;;;;;;;;;5073727;28;20198;-71
2022/02/05 05:44:02;;;;;;;83.90;43.08;;;;;;;;;;5072638;28;20188;-70
2022/02/05 05:46:51;;;;;;;85.07;42.58;;;;;;;;;;5073177;28;20202;-71
2022/02/05 05:49:21;;;;;;;94.20;46.95;;;;;;;;;;5072504;28;20208;-71
2022/02/05 05:51:48;;;;;;;86.95;46.45;;;;;;;;;;5072932;28;20248;-71
2022/02/05 05:54:15;;;;;;;81.93;45.17;;;;;;;;;;5072496;28;20275;-71
2022/02/05 05:56:45;;;;;;;76.45;40.50;;;;;;;;;;5073034;28;20199;-71
2022/02/05 05:59:13;;;;;;;79.68;41.85;;;;;;;;;;5070589;28;20326;-71
2022/02/05 06:01:40;;;;;;;86.88;45.15;;;;;;;;;;5072697;28;20616;-72
2022/02/05 06:04:07;;;;;;;102.03;49.38;;;;;;;;;;5072390;28;20210;-70
2022/02/05 06:06:34;;;;;;;113.80;56.13;;;;;;;;;;5072979;28;20200;-72
2022/02/05 06:09:00;;;;;;;119.93;59.13;;;;;;;;;;5072269;28;20583;-71
2022/02/05 06:11:27;;;;;;;112.53;56.85;;;;;;;;;;5072508;28;20176;-71
2022/02/05 06:13:54;;;;;;;108.00;54.40;;;;;;;;;;5072175;28;20226;-71
2022/02/05 06:16:28;;;;;;;111.32;53.95;;;;;;;;;;5072321;28;20235;-71
2022/02/05 06:18:56;;;;;;;95.15;50.63;;;;;;;;;;5072041;28;20674;-71
2022/02/05 06:21:22;;;;;;;92.05;50.03;;;;;;;;;;5072928;28;20667;-71
2022/02/05 06:23:49;;;;;;;95.00;47.50;;;;;;;;;;5071603;28;20187;-71
2022/02/05 06:26:16;;;;;;;85.43;46.55;;;;;;;;;;5072100;28;20582;-71
2022/02/05 06:28:43;;;;;;;83.40;45.22;;;;;;;;;;5071415;28;20188;-71
2022/02/05 06:31:10;;;;;;;103.55;48.88;;;;;;;;;;5072326;28;20204;-71
2022/02/05 06:33:36;;;;;;;96.50;49.20;;;;;;;;;;5071729;28;20192;-70
2022/02/05 06:36:03;;;;;;;92.00;46.60;;;;;;;;;;5071459;28;20200;-70
2022/02/05 06:38:30;;;;;;;84.03;45.10;;;;;;;;;;5071225;28;20227;-70
2022/02/05 06:40:57;;;;;;;83.95;44.17;;;;;;;;;;5072332;28;20593;-71
2022/02/05 06:43:23;;;;;;;75.93;40.70;;;;;;;;;;5071406;28;20207;-71
2022/02/05 06:45:50;;;;;;;83.55;42.55;;;;;;;;;;5071375;28;20192;-72
2022/02/05 06:48:17;;;;;;;71.05;37.05;;;;;;;;;;5070485;28;20204;-70
2022/02/05 06:50:45;;;;;;;60.17;33.70;;;;;;;;;;5071938;28;20192;-70
2022/02/05 06:53:12;;;;;;;59.95;32.90;;;;;;;;;;5071228;28;20191;-71
2022/02/05 06:55:39;;;;;;;59.47;32.83;;;;;;;;;;5072175;28;20549;-70
2022/02/05 06:58:05;;;;;;;59.60;33.70;;;;;;;;;;5070740;28;20643;-70
2022/02/05 07:00:32;;;;;;;62.20;34.20;;;;;;;;;;5071746;28;20206;-71
2022/02/05 07:02:59;;;;;;;58.35;33.60;;;;;;;;;;5071681;28;20772;-71
2022/02/05 07:05:26;;;;;;;59.58;33.53;;;;;;;;;;5070698;28;20199;-70
2022/02/05 07:07:53;;;;;;;58.58;32.85;;;;;;;;;;5070918;28;20244;-72
2022/02/05 07:10:20;;;;;;;63.05;35.13;;;;;;;;;;5071182;28;20564;-70
2022/02/05 07:13:12;;;;;;;58.83;32.85;;;;;;;;;;5071693;28;20204;-69
2022/02/05 07:15:44;;;;;;;60.60;33.05;;;;;;;;;;5071119;28;20222;-70
2022/02/05 07:18:28;;;;;;;65.88;34.70;;;;;;;;;;5071230;28;20322;-70
2022/02/05 07:21:07;;;;;;;57.58;31.27;;;;;;;;;;5071103;28;20593;-71
2022/02/05 07:24:11;;;;;;;58.75;31.30;;;;;;;;;;5070756;28;20701;-70
2022/02/05 07:29:23;;;;;;;64.88;32.00;;;;;;;;;;5074904;28;20202;-70
2022/02/05 07:31:51;;;;;;;59.60;31.95;;;;;;;;;;5091372;28;20677;-69
2022/02/05 07:34:21;;;;;;;54.70;29.55;;;;;;;;;;5090441;28;20199;-69
2022/02/05 07:36:48;;;;;;;50.38;29.15;;;;;;;;;;5091397;28;20195;-69
2022/02/05 07:39:16;;;;;;;55.08;29.17;;;;;;;;;;5091024;28;20215;-69
2022/02/05 07:41:42;;;;;;;47.85;26.30;;;;;;;;;;5091590;28;20730;-69
2022/02/05 07:44:12;;;;;;;46.92;26.95;;;;;;;;;;5090494;28;20180;-69
2022/02/05 07:46:42;;;;;;;51.28;28.58;;;;;;;;;;5091370;28;20577;-68
2022/02/05 07:49:11;;;;;;;54.38;30.25;;;;;;;;;;5088957;28;20705;-67
2022/02/05 07:51:37;;;;;;;57.22;30.63;;;;;;;;;;5090983;28;20213;-69
2022/02/05 07:54:10;;;;;;;56.80;33.17;;;;;;;;;;5090071;28;20195;-70
2022/02/05 07:56:40;;;;;;;54.55;30.95;;;;;;;;;;5090999;28;20183;-67
2022/02/05 07:59:06;;;;;;;57.85;32.95;;;;;;;;;;5090424;28;20668;-68
2022/02/05 08:01:33;;;;;;;50.10;30.35;;;;;;;;;;5089807;28;20202;-67
2022/02/05 08:04:00;;;;;;;59.22;32.95;;;;;;;;;;5090100;28;20199;-68
2022/02/05 08:06:27;;;;;;;51.63;31.95;;;;;;;;;;5090520;28;20219;-67
2022/02/05 08:08:58;;;;;;;61.05;33.50;;;;;;;;;;5090153;28;20238;-70
2022/02/05 08:11:36;;;;;;;63.33;34.65;;;;;;;;;;5090144;28;20199;-68
2022/02/05 08:14:07;;;;;;;62.83;34.85;;;;;;;;;;5083126;28;20202;-70
2022/02/05 08:19:10;;;;;;;61.35;35.25;;;;;;;;;;5086075;28;20238;-69
2022/02/05 08:21:37;;;;;;;61.15;33.88;;;;;;;;;;5085243;28;20183;-71
2022/02/05 08:24:04;;;;;;;57.05;34.10;;;;;;;;;;5087376;28;20191;-69
2022/02/05 08:26:31;;;;;;;63.88;36.38;;;;;;;;;;5087683;28;20244;-68
2022/02/05 08:29:02;;;;;;;62.00;35.47;;;;;;;;;;5086648;28;20195;-70
2022/02/05 08:31:29;;;;;;;57.95;33.78;;;;;;;;;;5083508;28;20260;-70
2022/02/05 08:33:56;;;;;;;61.58;33.47;;;;;;;;;;5080609;28;20202;-69
2022/02/05 08:36:24;;;;;;;66.28;35.38;;;;;;;;;;5076059;28;20195;-70
2022/02/05 08:38:52;;;;;;;56.33;34.13;;;;;;;;;;5075176;28;20220;-69
2022/02/05 08:41:19;;;;;;;60.70;36.05;;;;;;;;;;5090089;28;20206;-67
2022/02/05 08:43:47;;;;;;;61.53;32.63;;;;;;;;;;5087375;28;20368;-70
2022/02/05 08:46:14;;;;;;;60.20;33.65;;;;;;;;;;5089919;28;20191;-71
2022/02/05 08:48:40;;;;;;;63.85;34.60;;;;;;;;;;5089307;28;20566;-70
2022/02/05 08:51:07;;;;;;;56.80;33.45;;;;;;;;;;5089650;28;20743;-68
2022/02/05 08:53:35;;;;;;;52.88;31.30;;;;;;;;;;5101263;28;20198;-69
2022/02/05 08:56:02;;;;;;;57.05;32.83;;;;;;;;;;5110293;28;20211;-67
2022/02/05 08:58:28;;;;;;;57.15;30.05;;;;;;;;;;5088980;28;20206;-67
2022/02/05 09:01:09;;;;;;;62.35;35.58;;;;;;;;;;5089566;28;20778;-72
2022/02/05 09:06:31;;;;;;;52.55;27.63;;;;;;;;;;5070122;28;20199;-72
2022/02/05 09:09:52;;;;;;;90.03;57.70;;;;;;;;;;5084196;28;20583;-79
2022/02/05 09:12:01;;;;;;;51.72;29.92;;;;;;;;;;5078664;28;20211;-77
2022/02/05 09:14:32;;;;;;;80.85;46.28;;;;;;;;;;5084912;28;20197;-72
2022/02/05 09:16:59;;;;;;;45.00;25.58;;;;;;;;;;5087866;28;20226;-73
2022/02/05 09:19:27;;;;;;;79.00;43.58;;;;;;;;;;5088982;28;20268;-74
2022/02/05 09:21:53;;;;;;;101.00;61.38;;;;;;;;;;5089390;28;20183;-71
2022/02/05 09:24:20;;;;;;;74.18;44.35;;;;;;;;;;5089079;28;20202;-71
2022/02/05 09:26:55;;;;;;;45.83;27.83;;;;;;;;;;5089618;28;20665;-76
2022/02/05 09:29:23;;;;;;;49.28;26.98;;;;;;;;;;5083682;28;21412;-75
2022/02/05 09:31:50;;;;;;;43.60;25.88;;;;;;;;;;5088847;28;20252;-72
2022/02/05 09:34:17;;;;;;;42.95;27.27;;;;;;;;;;5089549;28;20191;-76
2022/02/05 09:36:44;;;;;;;47.13;28.08;;;;;;;;;;5089822;28;20183;-79
2022/02/05 09:39:11;;;;;;;51.08;28.92;;;;;;;;;;5088800;28;20227;-81
2022/02/05 09:41:39;;;;;;;51.65;28.30;;;;;;;;;;5089735;28;20260;-77
2022/02/05 09:44:05;;;;;;;49.05;27.73;;;;;;;;;;5104955;28;20191;-76
2022/02/05 09:46:32;;;;;;;52.05;29.02;;;;;;;;;;5089922;28;20262;-79
2022/02/05 09:48:59;;;;;;;42.40;24.55;;;;;;;;;;5088726;28;20195;-78
2022/02/05 09:51:32;;;;;;;42.72;25.63;;;;;;;;;;5088810;28;20199;-78
2022/02/05 09:54:00;;;;;;;42.45;25.08;;;;;;;;;;5088662;28;20187;-73
2022/02/05 09:56:29;;;;;;;48.92;25.35;;;;;;;;;;5069529;28;20192;-75
2022/02/05 09:58:56;;;;;;;42.33;25.97;;;;;;;;;;5082971;28;20223;-77
2022/02/05 10:01:25;;;;;;;42.93;25.17;;;;;;;;;;5089387;28;20413;-72
2022/02/05 10:03:53;;;;;;;39.73;25.87;;;;;;;;;;5089460;28;20471;-75
2022/02/05 10:06:25;;;;;;;54.33;29.23;;;;;;;;;;5089498;28;20437;-78
2022/02/05 10:08:57;;;;;;;130.73;83.80;;;;;;;;;;5088433;28;20846;-74
2022/02/05 10:11:25;;;;;;;111.43;74.23;;;;;;;;;;5089352;28;20791;-74
2022/02/05 10:13:53;;;;;;;62.50;37.43;;;;;;;;;;5087646;28;20449;-73
2022/02/05 10:16:27;;;;;;;66.97;36.90;;;;;;;;;;5089107;28;20469;-72
2022/02/05 10:18:56;;;;;;;59.30;38.27;;;;;;;;;;5089236;28;20858;-77
2022/02/05 10:21:24;;;;;;;61.67;40.07;;;;;;;;;;5089896;28;20449;-71
2022/02/05 10:23:54;;;;;;;63.23;39.90;;;;;;;;;;5090241;28;20486;-72
2022/02/05 10:26:30;;;;;;;65.97;42.47;;;;;;;;;;5092677;28;20459;-78
2022/02/05 10:28:58;;;;;;;71.17;43.80;;;;;;;;;;5092220;28;20502;-75
2022/02/05 10:31:27;;;;;;;60.43;39.53;;;;;;;;;;5093404;28;20431;-71
2022/02/05 10:34:07;;;;;;;59.53;37.23;;;;;;;;;;5098828;28;20447;-70
2022/02/05 10:36:35;;;;;;;59.70;37.60;;;;;;;;;;5113093;28;20452;-72
2022/02/05 10:39:27;;;;;;;56.57;36.67;;;;;;;;;;5071640;28;20485;-70
2022/02/05 10:44:40;;;;;;;123.93;93.73;;;;;;;;;;5093602;28;20539;-70
2022/02/05 10:47:07;;;;;;;61.17;38.10;;;;;;;;;;5113319;28;20440;-75
2022/02/05 10:49:39;;;;;;;60.10;36.97;;;;;;;;;;5113218;28;20950;-73
2022/02/05 10:52:05;;;;;;;59.47;38.03;;;;;;;;;;5110817;28;20444;-75
2022/02/05 10:54:49;;;;;;;62.57;38.60;;;;;;;;;;5085279;28;20807;-76
2022/02/05 10:57:23;;;;;;;60.30;38.07;;;;;;;;;;5084140;28;20444;-73
2022/02/05 11:00:10;;;;;;;59.87;38.70;;;;;;;;;;5085514;28;20484;-76
2022/02/05 11:05:35;;;;;;;61.20;38.60;;;;;;;;;;5079308;28;20444;-74
2022/02/05 11:08:02;;;;;;;66.70;38.73;;;;;;;;;;5090530;28;20441;-74
2022/02/05 11:15:58;;;;;;;62.80;39.67;;;;;;;;;;5104966;28;20834;-70
2022/02/05 11:21:12;;;;;;;86.43;54.77;;;;;;;;;;5083794;28;20548;-70
2022/02/05 11:23:38;;;;;;;135.20;89.63;;;;;;;;;;5086683;28;20437;-73
2022/02/05 11:26:06;;;;;;;65.27;41.27;;;;;;;;;;5087862;28;20960;-65
2022/02/05 11:28:42;;;;;;;67.03;40.10;;;;;;;;;;5085309;28;20773;-71
2022/02/05 11:31:12;;;;;;;59.67;40.20;;;;;;;;;;5090535;28;20437;-69
2022/02/05 11:33:39;;;;;;;63.70;39.43;;;;;;;;;;5087347;28;20463;-70
2022/02/05 11:38:42;;;;;;;61.37;39.03;;;;;;;;;;5104649;28;20453;-72
2022/02/05 11:41:29;;;;;;;66.40;41.07;;;;;;;;;;5088869;28;20452;-71
2022/02/05 11:44:29;;;;;;;64.17;40.70;;;;;;;;;;5088101;28;21272;-75
2022/02/05 11:47:08;;;;;;;65.53;40.67;;;;;;;;;;5053368;28;20445;-71
2022/02/05 11:49:55;;;;;;;69.30;41.67;;;;;;;;;;5088397;28;20440;-75
2022/02/05 11:52:37;;;;;;;65.00;43.30;;;;;;;;;;5087515;28;20441;-74
2022/02/05 11:55:12;;;;;;;71.40;42.17;;;;;;;;;;5091156;28;20437;-75
2022/02/05 11:57:41;;;;;;;64.33;42.90;;;;;;;;;;5089913;28;20441;-72
2022/02/05 12:00:11;;;;;;;69.63;44.13;;;;;;;;;;5105309;28;21027;-75
2022/02/05 12:02:43;;;;;;;68.80;44.93;;;;;;;;;;5091888;28;20424;-72
2022/02/05 12:05:17;;;;;;;79.37;46.97;;;;;;;;;;5091102;28;20811;-75
2022/02/05 12:08:03;;;;;;;83.70;48.13;;;;;;;;;;5091728;28;20880;-73
2022/02/05 12:10:33;;;;;;;72.90;49.63;;;;;;;;;;5091553;28;20436;-75
2022/02/05 12:13:21;;;;;;;77.80;47.93;;;;;;;;;;5091833;28;20619;-74
2022/02/05 12:16:10;;;;;;;74.03;48.07;;;;;;;;;;5090960;28;20468;-76
2022/02/05 12:18:55;;;;;;;72.67;46.07;;;;;;;;;;5091274;28;20441;-76
2022/02/05 12:21:29;;;;;;;79.43;47.63;;;;;;;;;;5091536;28;20448;-76
2022/02/05 12:26:29;;;;;;;86.47;54.37;;;;;;;;;;5094804;28;20874;-76
2022/02/05 12:28:57;;;;;;;78.73;50.73;;;;;;;;;;5106401;28;20441;-74
2022/02/05 12:31:28;;;;;;;63.73;39.27;;;;;;;;;;5106446;28;20449;-76
2022/02/05 12:33:58;;;;;;;57.03;39.37;;;;;;;;;;5091314;28;20437;-76
2022/02/05 12:36:25;;;;;;;70.40;41.30;;;;;;;;;;5091102;28;20940;-76
2022/02/05 12:38:52;;;;;;;61.80;38.67;;;;;;;;;;5090489;28;20502;-74
2022/02/05 12:41:21;;;;;;;57.77;39.23;;;;;;;;;;5090988;28;20489;-77
2022/02/05 12:43:58;;;;;;;58.03;39.27;;;;;;;;;;5091109;28;20490;-75
2022/02/05 12:46:28;;;;;;;66.90;42.80;;;;;;;;;;5091022;28;20475;-75
2022/02/05 12:49:01;;;;;;;65.00;40.60;;;;;;;;;;5091152;28;20449;-76
2022/02/05 12:51:28;;;;;;;76.73;42.40;;;;;;;;;;5091035;28;20441;-82
2022/02/05 12:54:04;;;;;;;66.07;40.47;;;;;;;;;;5090947;28;20424;-76
2022/02/05 12:56:35;;;;;;;70.80;42.57;;;;;;;;;;5090708;28;20991;-76
2022/02/05 12:59:04;;;;;;;70.50;46.37;;;;;;;;;;5090276;28;20441;-77
2022/02/05 13:01:32;;;;;;;64.27;45.77;;;;;;;;;;5106854;28;20864;-77
2022/02/05 13:04:28;;;;;;;73.03;46.30;;;;;;;;;;5090681;28;20448;-78
2022/02/05 13:07:15;;;;;;;72.37;46.07;;;;;;;;;;5076877;28;20830;-77
2022/02/05 13:09:58;;;;;;;71.80;47.70;;;;;;;;;;5089009;28;20445;-77
2022/02/05 13:12:30;;;;;;;82.57;46.93;;;;;;;;;;5106263;28;20978;-76
2022/02/05 13:15:02;;;;;;;76.20;45.37;;;;;;;;;;5090837;28;20939;-74
2022/02/05 13:18:17;;;;;;;61.33;43.13;;;;;;;;;;5106780;28;20236;-76
2022/02/05 13:36:07;;;;;;;34.63;21.23;;;;;;;;;;5083142;28;20882;-65
2022/02/05 13:38:56;;;;;;;32.13;21.70;;;;;;;;;;5079616;28;20291;-68
2022/02/05 13:41:46;;;;;;;18.20;10.63;;;;;;;;;;5080896;28;20800;-66
2022/02/05 13:44:17;;;;;;;9.70;6.70;;;;;;;;;;5083449;28;20186;-68
2022/02/05 13:47:04;;;;;;;9.67;5.87;;;;;;;;;;5085565;28;20439;-78
2022/02/05 13:49:31;;;;;;;42.70;36.50;;;;;;;;;;5085895;28;20437;-61
2022/02/05 13:52:14;;;;;;;23.83;11.53;;;;;;;;;;5092879;28;20832;-61
2022/02/05 13:54:42;;;;;;;16.50;6.77;;;;;;;;;;5109345;28;20927;-76
2022/02/05 13:57:12;;;;;;;11.37;6.93;;;;;;;;;;5112310;28;20522;-77
2022/02/05 13:59:39;;;;;;;11.47;6.33;;;;;;;;;;5113931;28;20460;-71
2022/02/05 14:02:15;;;;;;;11.63;5.40;;;;;;;;;;5115184;28;20493;-74
2022/02/05 14:05:10;;;;;;;7.37;4.90;;;;;;;;;;5113331;28;20439;-74
2022/02/05 14:07:44;;;;;;;13.13;5.40;;;;;;;;;;5114213;28;20440;-70
2022/02/05 14:10:19;;;;;;;10.90;4.80;;;;;;;;;;5112988;28;20871;-68
2022/02/05 14:12:48;;;;;;;12.37;4.90;;;;;;;;;;5128248;27;20443;-73
2022/02/05 14:15:16;;;;;;;9.43;4.53;;;;;;;;;;5113168;28;21118;-66
2022/02/05 14:17:43;;;;;;;6.60;4.20;;;;;;;;;;5128803;27;20482;-74
2022/02/05 14:20:11;;;;;;;29.57;17.37;;;;;;;;;;5106925;27;20491;-71
2022/02/05 14:22:40;;;;;;;9.67;4.40;;;;;;;;;;5092806;28;20974;-70
2022/02/05 14:25:09;;;;;;;8.10;3.60;;;;;;;;;;5093048;28;20452;-72
2022/02/05 14:27:39;;;;;;;15.47;5.00;;;;;;;;;;5093298;28;20433;-73
2022/02/05 14:30:14;;;;;;;14.67;4.60;;;;;;;;;;5089916;28;20460;-75
2022/02/05 14:32:45;;;;;;;6.47;3.87;;;;;;;;;;5092676;28;20893;-71
2022/02/05 14:40:44;;;;;;;10.13;4.77;;;;;;;;;;5091267;28;20852;-67
2022/02/05 14:43:12;;;;;;;8.43;4.93;;;;;;;;;;5091852;28;20469;-65
2022/02/05 14:45:39;;;;;;;12.67;5.33;;;;;;;;;;5092807;28;21064;-67
2022/02/05 14:48:05;;;;;;;8.87;5.27;;;;;;;;;;5091675;28;20810;-70
2022/02/05 14:50:32;;;;;;;9.13;4.67;;;;;;;;;;5091145;28;20464;-67
2022/02/05 14:52:59;;;;;;;11.77;5.70;;;;;;;;;;5091626;28;20425;-70
2022/02/05 14:55:26;;;;;;;9.03;5.30;;;;;;;;;;5087731;28;20449;-68
2022/02/05 14:57:55;;;;;;;11.50;5.57;;;;;;;;;;5089824;28;20434;-70
2022/02/05 15:00:22;;;;;;;11.53;5.57;;;;;;;;;;5089431;28;20480;-69
2022/02/05 15:02:50;;;;;;;11.13;6.00;;;;;;;;;;5086986;28;20449;-69
2022/02/05 15:05:17;;;;;;;11.37;5.60;;;;;;;;;;5080266;28;20533;-71
2022/02/05 15:07:44;;;;;;;9.43;5.57;;;;;;;;;;5084725;28;20435;-73
2022/02/05 15:10:15;;;;;;;9.80;5.37;;;;;;;;;;5085757;28;20502;-72
2022/02/05 15:12:43;;;;;;;11.33;5.57;;;;;;;;;;5083137;28;20978;-69
2022/02/05 15:15:24;;;;;;;10.33;5.70;;;;;;;;;;5084176;28;21199;-70
2022/02/05 15:17:51;;;;;;;9.10;5.57;;;;;;;;;;5085598;28;20445;-75
2022/02/05 15:20:19;;;;;;;8.83;5.10;;;;;;;;;;5104238;28;20490;-70
2022/02/05 15:22:47;;;;;;;13.20;5.10;;;;;;;;;;5112029;28;20444;-71
2022/02/05 15:25:14;;;;;;;10.30;5.30;;;;;;;;;;5111793;28;20424;-71
2022/02/05 15:27:41;;;;;;;10.30;5.13;;;;;;;;;;5111722;27;20436;-74
2022/02/05 15:30:08;;;;;;;14.77;6.17;;;;;;;;;;5110910;28;20471;-72
2022/02/05 15:32:35;;;;;;;10.23;6.10;;;;;;;;;;5111624;28;20440;-71
2022/02/05 15:35:03;;;;;;;11.00;6.30;;;;;;;;;;5111303;28;20440;-72
2022/02/05 15:37:32;;;;;;;12.13;6.70;;;;;;;;;;5111903;28;20459;-75
2022/02/05 15:45:14;;;;;;;13.60;7.80;;;;;;;;;;5104171;28;20459;-70
2022/02/05 15:47:41;;;;;;;16.57;7.70;;;;;;;;;;5089770;28;20464;-72
2022/02/05 15:50:11;;;;;;;13.33;8.13;;;;;;;;;;5090935;28;20525;-71
2022/02/05 15:52:37;;;;;;;13.40;7.47;;;;;;;;;;5091671;28;20433;-72
2022/02/05 15:55:05;;;;;;;14.53;7.43;;;;;;;;;;5091731;28;20433;-74
2022/02/05 16:00:06;;;;;;;18.47;7.77;;;;;;;;;;5090924;28;20448;-76
2022/02/05 16:02:38;;;;;;;12.83;7.10;;;;;;;;;;5090576;28;21108;-75
2022/02/05 16:05:05;;;;;;;13.20;6.73;;;;;;;;;;5090559;28;20840;-73
2022/02/05 16:07:32;;;;;;;130.83;85.37;;;;;;;;;;5091020;28;20441;-70
2022/02/05 16:09:59;;;;;;;57.77;38.87;;;;;;;;;;5090066;28;20804;-71
2022/02/05 16:12:25;;;;;;;14.33;7.83;;;;;;;;;;5090622;28;20429;-73
2022/02/05 16:14:52;;;;;;;12.43;7.40;;;;;;;;;;5090780;28;20493;-75
2022/02/05 16:17:20;;;;;;;12.57;7.40;;;;;;;;;;5090641;28;20858;-75
2022/02/05 16:19:47;;;;;;;13.37;8.23;;;;;;;;;;5090369;28;20453;-75
2022/02/05 16:22:14;;;;;;;14.10;7.40;;;;;;;;;;5091229;28;20530;-75
2022/02/05 16:24:41;;;;;;;16.33;7.73;;;;;;;;;;5090185;28;20828;-74
2022/02/05 16:27:07;;;;;;;14.23;7.93;;;;;;;;;;5090657;28;20422;-74
2022/02/05 16:29:35;;;;;;;16.33;8.17;;;;;;;;;;5090517;28;20425;-72
2022/02/05 16:32:02;;;;;;;12.17;7.97;;;;;;;;;;5090143;28;20459;-71
2022/02/05 16:34:31;;;;;;;13.53;8.70;;;;;;;;;;5087138;28;20453;-69
2022/02/05 16:37:00;;;;;;;12.90;8.47;;;;;;;;;;5090451;28;20439;-72
2022/02/05 16:39:28;;;;;;;14.37;8.37;;;;;;;;;;5087436;28;20461;-71
2022/02/05 16:41:55;;;;;;;15.43;7.53;;;;;;;;;;5090691;28;20472;-73
2022/02/05 16:44:22;;;;;;;14.97;8.23;;;;;;;;;;5086763;28;20452;-73
2022/02/05 16:46:52;;;;;;;14.60;8.03;;;;;;;;;;5088624;28;20460;-70
2022/02/05 16:49:20;;;;;;;13.97;7.53;;;;;;;;;;5094480;28;21348;-72
2022/02/05 16:51:52;;;;;;;11.33;7.73;;;;;;;;;;5093496;28;20454;-72
2022/02/05 16:54:21;;;;;;;19.10;9.43;;;;;;;;;;5069452;28;20446;-73
2022/02/05 16:56:51;;;;;;;15.37;8.23;;;;;;;;;;5070253;28;20471;-73
2022/02/05 16:59:17;;;;;;;17.03;8.93;;;;;;;;;;5070076;28;20442;-73
2022/02/05 17:01:45;;;;;;;15.17;8.33;;;;;;;;;;5072146;28;20477;-73
2022/02/05 17:04:15;;;;;;;12.97;8.43;;;;;;;;;;5085104;28;20445;-75
2022/02/05 17:06:42;;;;;;;15.80;8.90;;;;;;;;;;5078192;28;20488;-74
2022/02/05 17:09:11;;;;;;;14.47;8.37;;;;;;;;;;5088798;28;20437;-73
2022/02/05 17:11:38;;;;;;;28.47;12.50;;;;;;;;;;5089355;28;20441;-72
2022/02/05 17:14:06;;;;;;;14.47;8.07;;;;;;;;;;5089493;28;20448;-74
2022/02/05 17:16:33;;;;;;;16.43;9.80;;;;;;;;;;5089412;28;20525;-70
2022/02/05 17:19:01;;;;;;;15.60;9.43;;;;;;;;;;5087715;28;20467;-74
2022/02/05 17:21:27;;;;;;;14.93;8.83;;;;;;;;;;5088369;28;20481;-72
2022/02/05 17:23:55;;;;;;;14.50;9.17;;;;;;;;;;5088808;28;20444;-73
2022/02/05 17:26:26;;;;;;;15.93;9.17;;;;;;;;;;5088182;28;20891;-74
2022/02/05 17:28:54;;;;;;;14.37;8.90;;;;;;;;;;5069716;28;20964;-72
2022/02/05 17:31:21;;;;;;;15.40;9.20;;;;;;;;;;5069346;28;20445;-71